Time;durP1;ratioP1;P1;durP2;ratioP2;P2;SDS_P1;SDS_P2;PMS_P1;PMS_P2;Temp;Humidity;BMP_temperature;BMP_pressure;BME280_temperature;BME280_humidity;BME280_pressure;Samples;Min_cycle;Max_cycle;Signal;HPM_P1;HPM_P2
2022/07/17 00:02:16;;;;;;;1.77;1.00;;;24.70;48.00;;;;;;5004997;28;20080;-46
2022/07/17 00:04:42;;;;;;;2.08;0.85;;;24.70;48.00;;;;;;5005949;28;20032;-48
2022/07/17 00:07:08;;;;;;;1.55;0.80;;;24.70;48.10;;;;;;5002504;28;20030;-46
2022/07/17 00:09:34;;;;;;;1.58;0.90;;;24.70;48.20;;;;;;5005156;28;20457;-46
2022/07/17 00:11:59;;;;;;;1.75;0.73;;;24.70;48.20;;;;;;5005386;28;20026;-45
2022/07/17 00:14:25;;;;;;;2.28;1.17;;;24.70;48.10;;;;;;5005190;28;20049;-46
2022/07/17 00:16:51;;;;;;;1.60;0.80;;;24.70;48.10;;;;;;5004312;28;20052;-46
2022/07/17 00:19:17;;;;;;;1.60;0.88;;;24.70;48.20;;;;;;5004674;28;20044;-46
2022/07/17 00:21:42;;;;;;;2.22;0.90;;;24.70;48.20;;;;;;5003833;28;20029;-46
2022/07/17 00:24:08;;;;;;;1.50;0.65;;;24.70;48.10;;;;;;5006220;28;20030;-46
2022/07/17 00:26:34;;;;;;;2.67;1.10;;;24.70;48.10;;;;;;4987037;28;20029;-46
2022/07/17 00:29:01;;;;;;;2.53;0.88;;;24.70;48.00;;;;;;5005423;28;20110;-46
2022/07/17 00:31:27;;;;;;;3.05;0.90;;;24.70;48.00;;;;;;5004080;28;20049;-46
2022/07/17 00:33:52;;;;;;;3.08;0.80;;;24.70;47.90;;;;;;5004688;28;20050;-47
2022/07/17 00:36:18;;;;;;;2.42;0.88;;;24.70;47.90;;;;;;5004089;28;20508;-46
2022/07/17 00:38:44;;;;;;;1.80;0.90;;;24.70;47.90;;;;;;5005176;28;20720;-45
2022/07/17 00:41:09;;;;;;;1.60;0.88;;;24.70;48.00;;;;;;5004983;28;20065;-46
2022/07/17 00:43:35;;;;;;;0.85;0.60;;;24.70;48.00;;;;;;5005116;28;20482;-46
2022/07/17 00:46:02;;;;;;;1.50;0.52;;;24.70;48.00;;;;;;5004778;28;20137;-46
2022/07/17 00:48:28;;;;;;;1.52;0.63;;;24.70;47.90;;;;;;5004634;28;20021;-46
2022/07/17 00:50:54;;;;;;;1.90;0.90;;;24.60;47.80;;;;;;5005245;28;20574;-46
2022/07/17 00:53:21;;;;;;;1.63;0.60;;;24.70;48.00;;;;;;5003326;28;20037;-46
2022/07/17 00:55:47;;;;;;;1.52;0.80;;;24.70;47.90;;;;;;5005444;28;20030;-46
2022/07/17 00:58:23;;;;;;;2.03;0.90;;;24.70;47.80;;;;;;5005368;28;20033;-46
2022/07/17 01:00:51;;;;;;;1.45;0.63;;;24.70;47.90;;;;;;5004110;28;20513;-46
2022/07/17 01:03:17;;;;;;;1.25;0.65;;;24.70;47.90;;;;;;5005065;28;20056;-45
2022/07/17 01:05:43;;;;;;;1.67;0.77;;;24.70;47.90;;;;;;5004555;28;20050;-46
2022/07/17 01:08:09;;;;;;;1.27;0.60;;;24.70;47.90;;;;;;5000702;28;20018;-46
2022/07/17 01:10:35;;;;;;;1.45;0.80;;;24.60;47.90;;;;;;5004645;28;20026;-46
2022/07/17 01:13:01;;;;;;;1.55;0.68;;;24.70;47.90;;;;;;5004410;28;20359;-46
2022/07/17 01:15:27;;;;;;;1.20;0.60;;;24.70;48.00;;;;;;5004177;28;20052;-46
2022/07/17 01:17:52;;;;;;;2.17;1.00;;;24.60;47.80;;;;;;5005010;28;20033;-46
2022/07/17 01:20:18;;;;;;;2.33;0.80;;;24.70;47.90;;;;;;5004793;28;20034;-46
2022/07/17 01:22:47;;;;;;;1.83;0.85;;;24.70;47.90;;;;;;5002672;28;20733;-46
2022/07/17 01:25:14;;;;;;;1.45;0.70;;;24.70;47.80;;;;;;5005447;28;20045;-46
2022/07/17 01:27:40;;;;;;;1.60;0.75;;;24.70;47.80;;;;;;5003641;28;20662;-46
2022/07/17 01:30:07;;;;;;;1.67;0.77;;;24.60;47.70;;;;;;5004422;28;20056;-45
2022/07/17 01:32:35;;;;;;;2.63;0.70;;;24.60;47.70;;;;;;5005008;28;20079;-46
2022/07/17 01:35:02;;;;;;;1.45;0.60;;;24.70;47.80;;;;;;5002859;28;20030;-45
2022/07/17 01:37:28;;;;;;;1.45;0.70;;;24.60;47.70;;;;;;5002850;28;20038;-46
2022/07/17 01:39:54;;;;;;;1.63;0.70;;;24.60;47.60;;;;;;5003348;28;20159;-46
2022/07/17 01:42:21;;;;;;;1.95;1.00;;;24.60;47.70;;;;;;5003416;28;20109;-46
2022/07/17 01:44:46;;;;;;;1.95;0.82;;;24.60;47.60;;;;;;5004973;28;20022;-45
2022/07/17 01:47:16;;;;;;;2.38;0.90;;;24.60;47.60;;;;;;5003890;28;20038;-46
2022/07/17 01:49:50;;;;;;;1.73;0.93;;;24.60;47.60;;;;;;5003567;28;20026;-46
2022/07/17 01:52:16;;;;;;;1.55;0.65;;;24.60;47.60;;;;;;5000374;28;20054;-46
2022/07/17 01:54:42;;;;;;;1.67;0.77;;;24.60;47.80;;;;;;5003779;28;20026;-46
2022/07/17 01:57:09;;;;;;;2.55;1.15;;;24.60;47.70;;;;;;5002001;28;20096;-46
2022/07/17 01:59:36;;;;;;;1.38;0.60;;;24.60;47.70;;;;;;5001599;28;20486;-46
2022/07/17 02:02:04;;;;;;;1.27;0.70;;;24.60;47.70;;;;;;5004565;28;20211;-46
2022/07/17 02:04:30;;;;;;;1.77;0.68;;;24.60;47.70;;;;;;5002524;28;20022;-46
2022/07/17 02:06:56;;;;;;;1.73;0.75;;;24.60;47.70;;;;;;4999376;28;20586;-46
2022/07/17 02:09:22;;;;;;;2.13;0.65;;;24.60;47.70;;;;;;5003319;28;20044;-46
2022/07/17 02:11:49;;;;;;;1.73;0.80;;;24.60;47.60;;;;;;5003732;28;20037;-46
2022/07/17 02:14:15;;;;;;;1.20;0.63;;;24.60;47.40;;;;;;5002958;28;20092;-46
2022/07/17 02:16:40;;;;;;;1.30;0.70;;;24.60;47.40;;;;;;5001713;28;20029;-46
2022/07/17 02:19:06;;;;;;;1.83;0.80;;;24.60;47.50;;;;;;5003029;28;20037;-45
2022/07/17 02:21:31;;;;;;;1.10;0.60;;;24.60;47.40;;;;;;5002438;28;20034;-45
2022/07/17 02:23:57;;;;;;;1.45;0.70;;;24.60;47.40;;;;;;5003383;28;20025;-46
2022/07/17 02:26:23;;;;;;;1.23;0.70;;;24.60;47.40;;;;;;5002722;28;20041;-45
2022/07/17 02:28:49;;;;;;;1.95;0.90;;;24.60;47.40;;;;;;5003499;28;20535;-46
2022/07/17 02:31:14;;;;;;;2.22;0.80;;;24.60;47.30;;;;;;5003621;28;20434;-46
2022/07/17 02:33:40;;;;;;;1.02;0.50;;;24.60;47.30;;;;;;5003290;28;20065;-45
2022/07/17 02:36:06;;;;;;;1.58;0.80;;;24.60;47.40;;;;;;5003633;28;20030;-46
2022/07/17 02:38:32;;;;;;;1.55;0.80;;;24.60;47.40;;;;;;5001277;28;20068;-45
2022/07/17 02:40:58;;;;;;;1.50;0.77;;;24.60;47.30;;;;;;5002467;28;20026;-46
2022/07/17 02:43:24;;;;;;;2.15;0.80;;;24.60;48.00;;;;;;5003330;28;20567;-46
2022/07/17 02:45:49;;;;;;;1.00;0.60;;;24.60;47.40;;;;;;5003432;28;20457;-46
2022/07/17 02:48:15;;;;;;;1.55;0.63;;;24.60;47.50;;;;;;5003783;28;20040;-46
2022/07/17 02:50:41;;;;;;;1.45;0.60;;;24.60;47.50;;;;;;5003341;28;20700;-46
2022/07/17 02:53:06;;;;;;;1.17;0.60;;;24.60;47.40;;;;;;4999920;28;20286;-46
2022/07/17 02:55:32;;;;;;;1.30;0.60;;;24.60;47.40;;;;;;5003032;28;20060;-46
2022/07/17 02:57:57;;;;;;;0.75;0.50;;;24.60;47.50;;;;;;5003394;28;20053;-46
2022/07/17 03:00:23;;;;;;;1.13;0.60;;;24.60;47.40;;;;;;5003076;28;20807;-46
2022/07/17 03:02:49;;;;;;;2.22;0.90;;;24.50;47.10;;;;;;5003167;28;20036;-46
2022/07/17 03:05:16;;;;;;;1.63;0.70;;;24.60;47.10;;;;;;5003124;28;20029;-46
2022/07/17 03:07:43;;;;;;;2.17;1.00;;;24.60;47.10;;;;;;5016431;28;20101;-46
2022/07/17 03:10:10;;;;;;;1.45;0.70;;;24.60;47.10;;;;;;5003137;28;20029;-46
2022/07/17 03:12:36;;;;;;;1.25;0.60;;;24.60;47.00;;;;;;5002753;28;20359;-46
2022/07/17 03:15:02;;;;;;;1.20;0.65;;;24.60;47.10;;;;;;5002961;28;20080;-46
2022/07/17 03:17:27;;;;;;;1.45;0.60;;;24.60;47.10;;;;;;5003383;28;20746;-46
2022/07/17 03:19:53;;;;;;;1.27;0.60;;;24.50;47.10;;;;;;5002607;28;20318;-46
2022/07/17 03:22:19;;;;;;;1.42;0.60;;;24.50;47.10;;;;;;5001483;28;20033;-46
2022/07/17 03:24:44;;;;;;;2.03;0.65;;;24.50;47.10;;;;;;5002496;28;20108;-46
2022/07/17 03:27:10;;;;;;;1.50;0.80;;;24.50;47.10;;;;;;5002322;28;20053;-45
2022/07/17 03:29:35;;;;;;;1.13;0.70;;;24.50;47.10;;;;;;5005338;28;20574;-46
2022/07/17 03:32:01;;;;;;;0.88;0.50;;;24.50;47.00;;;;;;5008763;28;20018;-46
2022/07/17 03:34:27;;;;;;;1.77;0.80;;;24.50;47.10;;;;;;5009444;28;20080;-46
2022/07/17 03:36:52;;;;;;;1.40;0.52;;;24.50;47.10;;;;;;5006920;28;20026;-46
2022/07/17 03:39:18;;;;;;;3.25;0.70;;;24.50;47.20;;;;;;5008414;28;20037;-46
2022/07/17 03:41:44;;;;;;;1.17;0.60;;;24.60;47.20;;;;;;5008381;28;20025;-46
2022/07/17 03:44:09;;;;;;;1.13;0.65;;;24.50;47.20;;;;;;5007859;28;20030;-46
2022/07/17 03:46:35;;;;;;;1.23;0.68;;;24.50;47.10;;;;;;5009448;28;20470;-46
2022/07/17 03:49:01;;;;;;;1.13;0.60;;;24.50;47.00;;;;;;5008446;28;20092;-46
2022/07/17 03:51:27;;;;;;;1.67;0.60;;;24.50;46.90;;;;;;5009113;28;20049;-46
2022/07/17 03:53:52;;;;;;;1.75;0.82;;;24.50;47.00;;;;;;5007394;28;20026;-46
2022/07/17 03:56:18;;;;;;;1.63;0.90;;;24.50;46.80;;;;;;5008895;28;20029;-46
2022/07/17 03:58:44;;;;;;;1.63;0.75;;;24.60;46.90;;;;;;5009027;28;20121;-46
2022/07/17 04:01:10;;;;;;;0.98;0.60;;;24.50;47.00;;;;;;5008595;28;20550;-46
2022/07/17 04:03:35;;;;;;;1.10;0.60;;;24.60;46.90;;;;;;5009296;28;20021;-46
2022/07/17 04:06:02;;;;;;;1.20;0.70;;;24.50;46.90;;;;;;5007747;28;20394;-46
2022/07/17 04:08:28;;;;;;;1.63;0.57;;;24.50;46.80;;;;;;5006842;28;20707;-46
2022/07/17 04:10:53;;;;;;;1.73;0.73;;;24.50;46.80;;;;;;5008356;28;20045;-46
2022/07/17 04:13:19;;;;;;;1.77;0.77;;;24.50;46.90;;;;;;5023976;28;20080;-46
2022/07/17 04:15:56;;;;;;;0.88;0.60;;;24.50;46.90;;;;;;5009222;28;20386;-46
2022/07/17 04:18:24;;;;;;;1.83;0.60;;;24.50;46.90;;;;;;5006465;28;20557;-46
2022/07/17 04:20:51;;;;;;;1.85;0.63;;;24.50;46.80;;;;;;5008851;28;20441;-46
2022/07/17 04:23:17;;;;;;;1.48;0.70;;;24.50;46.90;;;;;;5005968;28;20456;-45
2022/07/17 04:25:43;;;;;;;1.83;0.75;;;24.50;47.10;;;;;;5008424;28;20112;-46
2022/07/17 04:28:10;;;;;;;1.77;0.80;;;24.50;47.10;;;;;;5008425;28;20053;-46
2022/07/17 04:30:36;;;;;;;1.35;0.68;;;24.50;47.10;;;;;;5007197;28;20025;-46
2022/07/17 04:33:02;;;;;;;0.93;0.60;;;24.50;47.10;;;;;;5022297;28;20018;-46
2022/07/17 04:35:29;;;;;;;1.50;0.70;;;24.50;47.00;;;;;;5007777;28;20111;-46
2022/07/17 04:37:54;;;;;;;1.42;0.60;;;24.50;46.90;;;;;;5005962;28;20088;-46
2022/07/17 04:40:21;;;;;;;2.22;0.75;;;24.50;47.00;;;;;;5006779;28;20026;-46
2022/07/17 04:42:46;;;;;;;1.15;0.55;;;24.50;47.00;;;;;;5004454;28;20030;-46
2022/07/17 04:45:13;;;;;;;1.42;0.60;;;24.50;46.70;;;;;;5005360;28;20026;-46
2022/07/17 04:47:39;;;;;;;1.40;0.60;;;24.50;46.70;;;;;;5002955;28;20326;-46
2022/07/17 04:50:06;;;;;;;2.95;0.80;;;24.50;46.60;;;;;;5005244;28;20061;-45
2022/07/17 04:52:31;;;;;;;1.90;0.68;;;24.50;46.60;;;;;;5002683;28;20038;-45
2022/07/17 04:54:57;;;;;;;1.63;0.70;;;24.50;46.70;;;;;;5002121;28;20081;-45
2022/07/17 04:57:23;;;;;;;1.33;0.70;;;24.50;46.70;;;;;;5004461;28;20183;-46
2022/07/17 04:59:48;;;;;;;1.33;0.60;;;24.50;46.70;;;;;;5020055;28;20498;-46
2022/07/17 05:02:14;;;;;;;1.48;0.60;;;24.50;46.60;;;;;;5005058;28;20029;-48
2022/07/17 05:04:40;;;;;;;1.60;0.63;;;24.50;46.70;;;;;;5004976;28;20060;-45
2022/07/17 05:07:05;;;;;;;1.45;0.68;;;24.50;46.70;;;;;;5001762;28;20034;-46
2022/07/17 05:09:31;;;;;;;1.73;0.77;;;24.50;46.70;;;;;;5001578;28;20029;-46
2022/07/17 05:11:56;;;;;;;1.20;0.70;;;24.50;46.80;;;;;;5005159;28;20014;-46
2022/07/17 05:14:22;;;;;;;0.88;0.55;;;24.50;46.90;;;;;;5005246;28;20026;-46
2022/07/17 05:16:48;;;;;;;1.30;0.70;;;24.50;46.80;;;;;;5001481;28;20399;-46
2022/07/17 05:19:14;;;;;;;2.13;0.90;;;24.50;46.80;;;;;;5004399;28;20022;-46
2022/07/17 05:21:39;;;;;;;1.48;0.60;;;24.50;46.80;;;;;;5000926;28;20026;-46
2022/07/17 05:24:05;;;;;;;1.60;0.90;;;24.50;46.60;;;;;;5004348;28;20113;-46
2022/07/17 05:26:31;;;;;;;1.67;0.77;;;24.50;46.60;;;;;;5003622;28;20061;-46
2022/07/17 05:28:56;;;;;;;1.40;0.73;;;24.50;46.70;;;;;;5019762;28;20014;-45
2022/07/17 05:31:22;;;;;;;2.33;0.68;;;24.40;47.30;;;;;;5004079;28;20022;-46
2022/07/17 05:33:48;;;;;;;2.45;0.88;;;24.50;46.80;;;;;;5003954;28;20247;-46
2022/07/17 05:36:13;;;;;;;2.47;0.90;;;24.50;46.80;;;;;;5003646;28;20061;-46
2022/07/17 05:38:39;;;;;;;1.48;0.80;;;24.50;46.80;;;;;;5001584;28;20092;-46
2022/07/17 05:41:05;;;;;;;1.88;0.85;;;24.50;46.90;;;;;;5004296;28;20122;-46
2022/07/17 05:43:31;;;;;;;1.90;0.90;;;24.50;46.90;;;;;;5003697;28;20537;-46
2022/07/17 05:45:57;;;;;;;2.17;0.90;;;24.50;46.90;;;;;;5004011;28;20077;-46
2022/07/17 05:48:24;;;;;;;1.63;0.90;;;24.50;47.00;;;;;;5004385;28;20022;-46
2022/07/17 05:50:49;;;;;;;1.73;0.70;;;24.50;47.00;;;;;;5003354;28;20510;-46
2022/07/17 05:53:15;;;;;;;2.10;0.90;;;24.50;47.00;;;;;;5001694;28;20453;-46
2022/07/17 05:55:42;;;;;;;2.40;1.23;;;24.50;47.00;;;;;;5002415;28;20110;-46
2022/07/17 05:58:07;;;;;;;3.15;1.20;;;24.50;47.00;;;;;;5003107;28;20401;-46
2022/07/17 06:00:33;;;;;;;1.38;0.77;;;24.60;47.00;;;;;;4999587;28;20034;-48
2022/07/17 06:02:59;;;;;;;3.33;1.02;;;24.50;47.70;;;;;;5004138;28;20033;-47
2022/07/17 06:05:26;;;;;;;1.50;0.73;;;24.50;48.10;;;;;;5002476;28;20410;-47
2022/07/17 06:07:53;;;;;;;1.50;0.75;;;24.50;48.10;;;;;;5030223;28;20044;-46
2022/07/17 06:10:18;;;;;;;1.95;0.82;;;24.60;47.70;;;;;;5003404;28;20550;-45
2022/07/17 06:12:44;;;;;;;2.42;1.00;;;24.60;47.60;;;;;;5001341;28;20030;-46
2022/07/17 06:15:10;;;;;;;2.45;0.98;;;24.60;47.50;;;;;;5003503;28;20017;-45
2022/07/17 06:17:36;;;;;;;1.02;0.65;;;24.60;47.40;;;;;;5003474;28;20037;-46
2022/07/17 06:20:03;;;;;;;1.88;0.90;;;24.70;47.70;;;;;;5001642;28;20032;-47
2022/07/17 06:22:29;;;;;;;1.45;0.70;;;24.80;47.40;;;;;;5001516;28;20033;-46
2022/07/17 06:24:55;;;;;;;1.73;0.90;;;24.80;47.30;;;;;;5001539;28;20088;-47
2022/07/17 06:27:21;;;;;;;2.67;0.90;;;24.90;47.60;;;;;;5003762;28;20092;-45
2022/07/17 06:29:47;;;;;;;2.25;0.90;;;24.90;47.90;;;;;;5003071;28;20028;-46
2022/07/17 06:32:13;;;;;;;2.03;0.90;;;24.90;47.80;;;;;;5004317;28;20220;-46
2022/07/17 06:34:38;;;;;;;2.33;0.95;;;25.00;48.00;;;;;;5003443;28;20025;-46
2022/07/17 06:37:04;;;;;;;2.72;1.30;;;25.00;47.90;;;;;;5002714;28;20061;-46
2022/07/17 06:39:30;;;;;;;4.38;1.40;;;25.10;48.20;;;;;;5003883;28;20045;-46
2022/07/17 06:41:57;;;;;;;5.70;2.00;;;25.10;48.40;;;;;;5002024;28;20501;-47
2022/07/17 06:44:22;;;;;;;14.32;3.05;;;25.10;48.40;;;;;;5004159;28;20083;-47
2022/07/17 06:46:48;;;;;;;11.73;2.78;;;25.10;48.60;;;;;;5003815;28;20524;-43
2022/07/17 06:49:14;;;;;;;10.10;2.95;;;25.20;50.20;;;;;;4994976;28;20456;-44
2022/07/17 06:51:40;;;;;;;9.15;2.58;;;25.20;49.50;;;;;;5014960;28;20036;-44
2022/07/17 06:54:06;;;;;;;7.22;2.25;;;25.20;49.40;;;;;;5002282;28;20025;-43
2022/07/17 06:56:31;;;;;;;11.05;2.75;;;25.20;49.00;;;;;;4997533;28;20056;-43
2022/07/17 06:58:57;;;;;;;12.27;2.78;;;25.30;48.80;;;;;;5003511;28;20052;-44
2022/07/17 07:01:22;;;;;;;9.88;2.53;;;25.30;48.60;;;;;;5002564;28;20040;-44
2022/07/17 07:03:48;;;;;;;7.15;2.40;;;25.30;48.80;;;;;;5002995;28;20038;-44
2022/07/17 07:06:14;;;;;;;7.90;2.40;;;25.30;48.80;;;;;;5002715;28;20037;-44
2022/07/17 07:08:40;;;;;;;7.30;2.40;;;25.40;48.70;;;;;;5002661;28;20040;-44
2022/07/17 07:11:06;;;;;;;7.35;2.25;;;25.40;48.60;;;;;;5002570;28;20029;-44
2022/07/17 07:13:32;;;;;;;6.20;1.98;;;25.40;48.60;;;;;;5002797;28;20034;-44
2022/07/17 07:15:57;;;;;;;4.22;1.48;;;25.40;48.50;;;;;;5002810;28;20088;-44
2022/07/17 07:18:23;;;;;;;6.80;2.10;;;25.50;48.40;;;;;;5002657;28;20030;-44
2022/07/17 07:20:49;;;;;;;6.70;2.45;;;25.50;48.20;;;;;;5003020;28;20037;-43
2022/07/17 07:23:15;;;;;;;6.43;1.77;;;25.50;48.10;;;;;;5000292;28;20133;-44
2022/07/17 07:25:40;;;;;;;5.88;1.85;;;25.50;48.20;;;;;;5002369;28;20585;-44
2022/07/17 07:28:06;;;;;;;3.55;1.45;;;25.50;48.10;;;;;;5002749;28;20097;-44
2022/07/17 07:30:32;;;;;;;8.00;2.40;;;25.50;47.90;;;;;;5001322;28;20026;-43
2022/07/17 07:32:58;;;;;;;4.45;1.40;;;25.50;47.90;;;;;;5002557;28;20445;-44
2022/07/17 07:35:24;;;;;;;5.45;2.08;;;25.50;47.80;;;;;;5002511;28;20794;-44
2022/07/17 07:37:49;;;;;;;6.10;2.05;;;25.50;47.70;;;;;;5001576;28;20034;-44
2022/07/17 07:40:15;;;;;;;6.00;1.85;;;25.60;47.60;;;;;;5002519;28;20560;-44
2022/07/17 07:42:41;;;;;;;3.60;1.35;;;25.60;47.40;;;;;;5002617;28;20061;-43
2022/07/17 07:45:08;;;;;;;3.90;1.50;;;25.60;47.40;;;;;;4996411;28;20029;-44
2022/07/17 07:47:41;;;;;;;4.55;2.10;;;25.60;47.10;;;;;;4999816;28;20026;-46
2022/07/17 07:50:07;;;;;;;3.90;1.17;;;25.60;47.00;;;;;;5003426;28;20251;-46
2022/07/17 07:52:33;;;;;;;5.72;1.98;;;25.60;46.70;;;;;;5002250;28;20057;-47
2022/07/17 07:54:59;;;;;;;3.72;1.20;;;25.60;47.50;;;;;;5002820;28;20029;-46
2022/07/17 07:57:24;;;;;;;3.33;1.30;;;25.60;46.70;;;;;;5003189;28;20101;-47
2022/07/17 07:59:50;;;;;;;3.80;1.23;;;25.60;46.70;;;;;;5002848;28;20030;-46
2022/07/17 08:02:15;;;;;;;3.95;1.13;;;25.60;46.50;;;;;;5002709;28;20030;-46
2022/07/17 08:04:41;;;;;;;3.33;1.25;;;25.50;46.20;;;;;;5002806;28;20059;-46
2022/07/17 08:07:07;;;;;;;1.85;0.90;;;25.60;46.20;;;;;;5002851;28;20041;-47
2022/07/17 08:09:32;;;;;;;3.95;1.35;;;25.60;45.70;;;;;;5003506;28;20072;-48
2022/07/17 08:11:58;;;;;;;4.07;1.10;;;25.60;46.10;;;;;;5002790;28;20026;-47
2022/07/17 08:14:24;;;;;;;3.40;1.15;;;25.60;46.10;;;;;;5003241;28;20160;-48
2022/07/17 08:16:49;;;;;;;3.17;1.00;;;25.60;45.50;;;;;;5002413;28;20095;-48
2022/07/17 08:19:15;;;;;;;3.75;1.30;;;25.60;45.70;;;;;;5006294;28;20041;-47
2022/07/17 08:21:41;;;;;;;3.85;1.23;;;25.50;45.70;;;;;;5006299;28;20026;-49
2022/07/17 08:24:07;;;;;;;2.63;0.82;;;25.50;45.70;;;;;;5006258;28;20026;-47
2022/07/17 08:26:32;;;;;;;4.00;1.45;;;25.50;45.70;;;;;;5006754;28;20038;-47
2022/07/17 08:28:58;;;;;;;3.20;1.10;;;25.50;45.90;;;;;;5006293;28;20026;-48
2022/07/17 08:31:25;;;;;;;4.60;1.30;;;25.50;46.10;;;;;;5006236;28;20160;-47
2022/07/17 08:33:50;;;;;;;3.72;1.25;;;25.50;45.90;;;;;;5006528;28;20026;-49
2022/07/17 08:36:16;;;;;;;4.43;1.25;;;25.50;46.00;;;;;;5005959;28;20105;-49
2022/07/17 08:38:42;;;;;;;3.10;1.02;;;25.50;45.80;;;;;;5007061;28;20072;-48
2022/07/17 08:41:10;;;;;;;3.35;1.20;;;25.50;45.20;;;;;;5005816;28;20034;-47
2022/07/17 08:43:36;;;;;;;2.67;0.90;;;25.50;45.00;;;;;;5006451;28;20037;-48
2022/07/17 08:46:02;;;;;;;1.83;0.82;;;25.50;45.10;;;;;;5005250;28;20116;-46
2022/07/17 08:48:31;;;;;;;2.55;1.00;;;25.50;45.10;;;;;;5006236;28;20018;-46
2022/07/17 08:50:59;;;;;;;4.50;1.38;;;25.50;45.40;;;;;;5021039;28;20026;-46
2022/07/17 08:53:25;;;;;;;2.60;1.10;;;25.50;45.10;;;;;;5005357;28;20036;-46
2022/07/17 08:55:51;;;;;;;3.22;1.30;;;25.50;45.40;;;;;;5005722;28;20490;-46
2022/07/17 08:58:17;;;;;;;3.90;0.80;;;25.50;45.10;;;;;;5005145;28;20470;-48
2022/07/17 09:00:44;;;;;;;3.00;0.90;;;25.50;44.80;;;;;;5005067;28;20037;-50
2022/07/17 09:03:10;;;;;;;2.67;0.80;;;25.50;44.10;;;;;;5005252;28;20060;-48
2022/07/17 09:05:40;;;;;;;2.30;0.80;;;25.50;44.00;;;;;;5005118;28;20018;-48
2022/07/17 09:08:08;;;;;;;2.70;0.95;;;25.40;44.00;;;;;;5005641;28;20054;-48
2022/07/17 09:10:43;;;;;;;1.30;0.65;;;25.50;43.80;;;;;;5004802;28;20018;-48
2022/07/17 09:13:25;;;;;;;2.58;0.98;;;25.40;43.10;;;;;;5005236;28;20030;-47
2022/07/17 09:15:52;;;;;;;2.30;0.73;;;25.40;43.00;;;;;;5005223;28;20474;-47
2022/07/17 09:18:19;;;;;;;3.15;0.75;;;25.40;42.70;;;;;;5005441;28;20112;-49
2022/07/17 09:20:47;;;;;;;2.08;0.98;;;25.50;43.40;;;;;;5004848;28;20033;-47
2022/07/17 09:23:12;;;;;;;3.88;0.95;;;25.50;42.30;;;;;;5005450;28;20052;-49
2022/07/17 09:25:44;;;;;;;2.22;0.80;;;25.50;42.70;;;;;;5027671;28;20041;-49
2022/07/17 09:28:11;;;;;;;2.90;0.90;;;25.40;42.60;;;;;;5025685;28;20573;-47
2022/07/17 09:30:46;;;;;;;2.30;0.90;;;25.40;43.00;;;;;;5003690;28;20441;-48
2022/07/17 09:33:26;;;;;;;1.75;0.60;;;25.40;43.60;;;;;;5001469;28;20120;-47
2022/07/17 09:36:07;;;;;;;3.13;1.10;;;25.40;43.80;;;;;;5004718;28;20201;-46
2022/07/17 09:38:37;;;;;;;1.88;0.77;;;25.40;43.80;;;;;;5004680;28;20434;-49
2022/07/17 09:41:15;;;;;;;2.40;0.88;;;25.40;43.80;;;;;;5005258;28;20022;-47
2022/07/17 09:43:53;;;;;;;2.72;0.93;;;25.40;43.90;;;;;;5004882;28;20034;-49
2022/07/17 09:46:37;;;;;;;2.05;0.80;;;25.40;44.10;;;;;;5003040;28;20038;-49
2022/07/17 09:49:04;;;;;;;2.47;0.70;;;25.40;44.10;;;;;;5004849;28;20026;-49
2022/07/17 09:51:37;;;;;;;3.63;0.75;;;25.40;44.20;;;;;;5004426;28;20057;-49
2022/07/17 09:54:05;;;;;;;1.90;0.82;;;25.30;44.20;;;;;;5004539;28;20057;-49
2022/07/17 09:56:33;;;;;;;2.33;0.60;;;25.40;44.30;;;;;;5003161;28;20604;-48
2022/07/17 09:59:09;;;;;;;2.83;0.70;;;25.40;44.40;;;;;;5003435;28;20482;-48
2022/07/17 10:01:36;;;;;;;2.20;0.70;;;25.40;44.50;;;;;;5004359;28;20244;-48
2022/07/17 10:04:03;;;;;;;1.42;0.60;;;25.40;44.50;;;;;;5003033;28;20026;-47
2022/07/17 10:06:29;;;;;;;1.23;0.57;;;25.40;44.60;;;;;;5003432;28;20137;-48
2022/07/17 10:08:55;;;;;;;1.92;0.82;;;25.40;44.70;;;;;;5002084;28;20474;-49
2022/07/17 10:11:23;;;;;;;1.98;0.85;;;25.40;44.70;;;;;;5002551;28;20030;-48
2022/07/17 10:13:51;;;;;;;1.42;0.60;;;25.40;44.80;;;;;;5002021;28;20611;-49
2022/07/17 10:16:24;;;;;;;1.65;0.52;;;25.40;44.70;;;;;;5001456;28;20551;-48
2022/07/17 10:18:54;;;;;;;2.15;0.88;;;25.40;44.90;;;;;;5001302;28;20030;-47
2022/07/17 10:21:21;;;;;;;1.95;0.80;;;25.30;44.90;;;;;;5001356;28;20037;-48
2022/07/17 10:23:53;;;;;;;1.92;0.70;;;25.30;44.90;;;;;;5002891;28;20038;-48
2022/07/17 10:26:38;;;;;;;1.52;0.68;;;25.30;44.90;;;;;;5003499;28;20025;-49
2022/07/17 10:29:28;;;;;;;1.75;0.73;;;25.40;44.90;;;;;;5004427;28;20127;-48
2022/07/17 10:31:54;;;;;;;1.58;0.70;;;25.30;45.10;;;;;;4993392;28;20042;-49
2022/07/17 10:34:46;;;;;;;1.92;0.70;;;25.40;45.30;;;;;;5002831;28;20471;-46
2022/07/17 10:37:19;;;;;;;1.90;0.90;;;25.30;45.30;;;;;;5002781;28;20041;-49
2022/07/17 10:39:59;;;;;;;1.73;0.80;;;25.30;45.20;;;;;;5002795;28;20144;-48
2022/07/17 10:42:37;;;;;;;2.20;0.70;;;25.30;45.30;;;;;;5004023;28;20022;-46
2022/07/17 10:45:32;;;;;;;3.10;0.80;;;25.40;45.40;;;;;;5003215;28;20529;-46
2022/07/17 10:48:24;;;;;;;1.48;0.60;;;25.30;45.50;;;;;;5002809;28;20053;-47
2022/07/17 10:50:53;;;;;;;2.58;0.65;;;25.30;45.50;;;;;;5002621;28;20149;-46
2022/07/17 10:53:23;;;;;;;2.30;1.00;;;25.30;45.70;;;;;;5003348;28;20034;-49
2022/07/17 10:56:04;;;;;;;2.45;0.70;;;25.30;45.80;;;;;;5002967;28;20030;-48
2022/07/17 10:58:33;;;;;;;0.82;0.57;;;25.30;45.70;;;;;;5002468;28;20021;-46
2022/07/17 11:01:12;;;;;;;2.85;0.98;;;25.40;45.70;;;;;;5002609;28;20490;-49
2022/07/17 11:03:54;;;;;;;2.05;0.65;;;25.40;47.80;;;;;;5002792;28;20018;-47
2022/07/17 11:06:38;;;;;;;2.00;0.63;;;25.30;47.40;;;;;;5001044;28;20034;-48
2022/07/17 11:09:08;;;;;;;2.33;0.60;;;25.30;46.80;;;;;;5003050;28;20070;-48
2022/07/17 11:11:46;;;;;;;3.03;0.80;;;25.40;46.80;;;;;;5002460;28;20037;-48
2022/07/17 11:14:26;;;;;;;2.67;0.88;;;25.40;45.50;;;;;;5003401;28;20026;-48
2022/07/17 11:16:53;;;;;;;1.45;0.63;;;25.40;45.70;;;;;;5003408;28;20049;-48
2022/07/17 11:19:32;;;;;;;2.55;0.70;;;25.40;45.40;;;;;;5002786;28;20056;-46
2022/07/17 11:22:03;;;;;;;2.03;0.70;;;25.40;45.60;;;;;;5003286;28;20149;-48
2022/07/17 11:24:44;;;;;;;2.13;0.73;;;25.40;45.70;;;;;;4998266;28;20069;-47
2022/07/17 11:27:20;;;;;;;1.52;0.65;;;25.40;46.40;;;;;;5003034;28;20026;-48
2022/07/17 11:29:46;;;;;;;1.88;0.80;;;25.40;45.50;;;;;;5002558;28;20026;-46
2022/07/17 11:32:13;;;;;;;2.03;0.60;;;25.40;45.50;;;;;;5003200;28;20144;-47
2022/07/17 11:34:39;;;;;;;1.67;0.77;;;25.40;45.50;;;;;;5003460;28;20429;-47
2022/07/17 11:37:06;;;;;;;1.88;0.70;;;25.40;46.00;;;;;;5001967;28;20036;-47
2022/07/17 11:39:46;;;;;;;1.40;0.50;;;25.40;45.60;;;;;;5001608;28;20030;-48
2022/07/17 11:42:18;;;;;;;1.38;0.70;;;25.40;45.90;;;;;;5002144;28;20098;-47
2022/07/17 11:44:45;;;;;;;2.10;0.80;;;25.40;46.00;;;;;;5003061;28;20129;-48
2022/07/17 11:47:12;;;;;;;1.88;0.68;;;25.40;46.10;;;;;;5002400;28;20451;-48
2022/07/17 11:49:42;;;;;;;2.15;0.80;;;25.40;46.10;;;;;;5003335;28;20498;-46
2022/07/17 11:52:18;;;;;;;1.60;0.73;;;25.40;46.10;;;;;;5006546;28;20038;-47
2022/07/17 11:54:54;;;;;;;2.78;1.08;;;25.40;46.30;;;;;;5006372;28;20022;-47
2022/07/17 11:57:20;;;;;;;3.22;0.90;;;25.40;46.90;;;;;;5007149;28;20041;-46
2022/07/17 11:59:49;;;;;;;4.53;0.85;;;25.50;46.90;;;;;;5006420;28;20706;-48
2022/07/17 12:02:21;;;;;;;1.55;0.70;;;25.50;47.10;;;;;;5007006;28;20030;-49
2022/07/17 12:04:51;;;;;;;1.73;0.70;;;25.50;46.50;;;;;;5006543;28;20034;-47
2022/07/17 12:07:17;;;;;;;2.70;1.00;;;25.50;41.40;;;;;;5006273;28;20667;-47
2022/07/17 12:09:43;;;;;;;1.17;0.60;;;25.50;41.10;;;;;;4986481;28;20038;-46
2022/07/17 12:12:21;;;;;;;1.77;0.70;;;25.50;41.00;;;;;;4986850;28;20530;-47
2022/07/17 12:14:55;;;;;;;2.65;0.65;;;25.50;40.00;;;;;;4987422;28;20022;-47
2022/07/17 12:17:22;;;;;;;2.10;0.90;;;25.60;39.30;;;;;;4986563;28;20117;-47
2022/07/17 12:19:47;;;;;;;1.88;0.60;;;25.50;38.40;;;;;;4987251;28;20515;-46
2022/07/17 12:22:13;;;;;;;1.35;0.65;;;25.60;38.70;;;;;;5001106;28;20101;-50
2022/07/17 12:24:41;;;;;;;2.63;0.98;;;25.60;41.20;;;;;;5006794;28;20032;-47
2022/07/17 12:27:09;;;;;;;3.40;1.10;;;25.60;41.10;;;;;;5005945;28;20030;-49
2022/07/17 12:29:35;;;;;;;5.47;1.50;;;25.60;40.70;;;;;;5005164;28;20389;-48
2022/07/17 12:32:12;;;;;;;2.35;0.90;;;25.70;39.00;;;;;;5006305;28;20030;-49
2022/07/17 12:34:46;;;;;;;1.70;0.70;;;25.70;41.20;;;;;;5005770;28;20088;-48
2022/07/17 12:37:13;;;;;;;2.97;0.93;;;25.70;40.00;;;;;;5006436;28;20026;-47
2022/07/17 12:39:38;;;;;;;1.42;0.60;;;25.70;39.40;;;;;;5005526;28;20045;-47
2022/07/17 12:42:04;;;;;;;3.10;0.90;;;25.70;38.40;;;;;;5006312;28;20204;-46
2022/07/17 12:44:30;;;;;;;1.50;0.55;;;25.70;38.60;;;;;;5005483;28;20450;-48
2022/07/17 12:46:56;;;;;;;2.45;0.75;;;25.80;38.20;;;;;;5004779;28;20026;-47
2022/07/17 12:49:23;;;;;;;3.00;0.80;;;25.80;37.70;;;;;;5002962;28;20033;-47